sensor_id;sensor_type;location;lat;lon;timestamp;P1;durP1;ratioP1;P2;durP2;ratioP2
74538;SDS011;66042;51.090;-115.340;2023-07-02T00:00:07;2.90;;;0.50;;
74538;SDS011;66042;51.090;-115.340;2023-07-02T00:02:36;1.50;;;0.60;;
74538;SDS011;66042;51.090;-115.340;2023-07-02T00:05:04;1.10;;;0.60;;
74538;SDS011;66042;51.090;-115.340;2023-07-02T00:07:32;1.50;;;0.60;;
74538;SDS011;66042;51.090;-115.340;2023-07-02T00:10:00;3.70;;;0.60;;
74538;SDS011;66042;51.090;-115.340;2023-07-02T00:12:27;1.30;;;0.40;;
74538;SDS011;66042;51.090;-115.340;2023-07-02T00:14:55;1.50;;;0.60;;
74538;SDS011;66042;51.090;-115.340;2023-07-02T00:17:22;1.50;;;0.80;;
74538;SDS011;66042;51.090;-115.340;2023-07-02T00:19:49;3.90;;;1.00;;
74538;SDS011;66042;51.090;-115.340;2023-07-02T00:22:17;3.20;;;0.40;;
74538;SDS011;66042;51.090;-115.340;2023-07-02T00:24:44;2.30;;;0.50;;
74538;SDS011;66042;51.090;-115.340;2023-07-02T00:27:12;3.10;;;0.50;;
74538;SDS011;66042;51.090;-115.340;2023-07-02T00:29:39;1.80;;;0.90;;
74538;SDS011;66042;51.090;-115.340;2023-07-02T00:32:06;2.30;;;1.00;;
74538;SDS011;66042;51.090;-115.340;2023-07-02T00:34:33;2.80;;;1.30;;
74538;SDS011;66042;51.090;-115.340;2023-07-02T00:37:04;3.70;;;1.00;;
74538;SDS011;66042;51.090;-115.340;2023-07-02T00:39:30;2.20;;;1.20;;
74538;SDS011;66042;51.090;-115.340;2023-07-02T00:42:01;4.10;;;2.30;;
74538;SDS011;66042;51.090;-115.340;2023-07-02T00:44:33;2.50;;;1.70;;
74538;SDS011;66042;51.090;-115.340;2023-07-02T00:47:10;4.10;;;0.90;;
74538;SDS011;66042;51.090;-115.340;2023-07-02T00:49:39;2.40;;;0.90;;
74538;SDS011;66042;51.090;-115.340;2023-07-02T00:52:06;2.40;;;0.60;;
74538;SDS011;66042;51.090;-115.340;2023-07-02T00:54:33;1.30;;;0.50;;
74538;SDS011;66042;51.090;-115.340;2023-07-02T00:57:01;1.40;;;0.60;;
74538;SDS011;66042;51.090;-115.340;2023-07-02T00:59:32;1.20;;;0.50;;
74538;SDS011;66042;51.090;-115.340;2023-07-02T01:02:04;2.00;;;0.50;;
74538;SDS011;66042;51.090;-115.340;2023-07-02T01:04:32;1.20;;;0.40;;
74538;SDS011;66042;51.090;-115.340;2023-07-02T01:06:59;1.40;;;0.40;;
74538;SDS011;66042;51.090;-115.340;2023-07-02T01:09:28;1.80;;;0.50;;
74538;SDS011;66042;51.090;-115.340;2023-07-02T01:11:59;2.20;;;0.40;;
74538;SDS011;66042;51.090;-115.340;2023-07-02T01:17:03;1.20;;;0.60;;
74538;SDS011;66042;51.090;-115.340;2023-07-02T01:19:45;3.50;;;1.60;;
74538;SDS011;66042;51.090;-115.340;2023-07-02T01:22:28;2.40;;;0.70;;
74538;SDS011;66042;51.090;-115.340;2023-07-02T01:24:56;3.10;;;1.60;;
74538;SDS011;66042;51.090;-115.340;2023-07-02T01:27:23;1.60;;;1.10;;
74538;SDS011;66042;51.090;-115.340;2023-07-02T01:29:53;3.20;;;1.40;;
74538;SDS011;66042;51.090;-115.340;2023-07-02T01:32:22;3.30;;;1.20;;
74538;SDS011;66042;51.090;-115.340;2023-07-02T01:34:49;4.50;;;1.10;;
74538;SDS011;66042;51.090;-115.340;2023-07-02T01:37:19;3.00;;;1.50;;
74538;SDS011;66042;51.090;-115.340;2023-07-02T01:39:46;2.00;;;0.90;;
74538;SDS011;66042;51.090;-115.340;2023-07-02T01:42:17;2.80;;;0.90;;
74538;SDS011;66042;51.090;-115.340;2023-07-02T01:44:48;2.30;;;1.20;;
74538;SDS011;66042;51.090;-115.340;2023-07-02T01:47:18;6.60;;;2.50;;
74538;SDS011;66042;51.090;-115.340;2023-07-02T01:49:46;9.00;;;4.60;;
74538;SDS011;66042;51.090;-115.340;2023-07-02T01:52:13;8.50;;;5.30;;
74538;SDS011;66042;51.090;-115.340;2023-07-02T01:54:40;6.90;;;5.20;;
74538;SDS011;66042;51.090;-115.340;2023-07-02T01:57:07;8.60;;;5.00;;
74538;SDS011;66042;51.090;-115.340;2023-07-02T01:59:34;9.80;;;5.50;;
74538;SDS011;66042;51.090;-115.340;2023-07-02T02:02:01;8.70;;;4.60;;
74538;SDS011;66042;51.090;-115.340;2023-07-02T02:04:29;8.70;;;5.10;;
74538;SDS011;66042;51.090;-115.340;2023-07-02T02:06:56;8.70;;;4.70;;
74538;SDS011;66042;51.090;-115.340;2023-07-02T02:09:23;8.80;;;4.90;;
74538;SDS011;66042;51.090;-115.340;2023-07-02T02:11:51;8.40;;;5.10;;
74538;SDS011;66042;51.090;-115.340;2023-07-02T02:14:20;10.10;;;5.80;;
74538;SDS011;66042;51.090;-115.340;2023-07-02T02:16:48;8.10;;;5.70;;
74538;SDS011;66042;51.090;-115.340;2023-07-02T02:19:15;9.10;;;5.40;;
74538;SDS011;66042;51.090;-115.340;2023-07-02T02:21:42;7.90;;;5.70;;
74538;SDS011;66042;51.090;-115.340;2023-07-02T02:24:09;11.60;;;5.80;;
74538;SDS011;66042;51.090;-115.340;2023-07-02T02:26:36;9.30;;;5.60;;
74538;SDS011;66042;51.090;-115.340;2023-07-02T02:29:04;9.60;;;5.60;;
74538;SDS011;66042;51.090;-115.340;2023-07-02T02:31:31;8.40;;;6.10;;
74538;SDS011;66042;51.090;-115.340;2023-07-02T02:33:58;10.10;;;5.30;;
74538;SDS011;66042;51.090;-115.340;2023-07-02T02:36:25;8.30;;;5.00;;
74538;SDS011;66042;51.090;-115.340;2023-07-02T02:38:52;10.10;;;5.60;;
74538;SDS011;66042;51.090;-115.340;2023-07-02T02:41:18;9.40;;;5.00;;
74538;SDS011;66042;51.090;-115.340;2023-07-02T02:43:45;8.60;;;5.00;;
74538;SDS011;66042;51.090;-115.340;2023-07-02T02:46:12;9.40;;;5.50;;
74538;SDS011;66042;51.090;-115.340;2023-07-02T02:48:47;10.20;;;6.00;;
74538;SDS011;66042;51.090;-115.340;2023-07-02T02:51:14;7.70;;;4.90;;
74538;SDS011;66042;51.090;-115.340;2023-07-02T02:53:41;8.70;;;5.50;;
74538;SDS011;66042;51.090;-115.340;2023-07-02T02:56:08;10.10;;;5.90;;
74538;SDS011;66042;51.090;-115.340;2023-07-02T02:58:35;9.20;;;5.80;;
74538;SDS011;66042;51.090;-115.340;2023-07-02T03:01:02;10.30;;;5.50;;
74538;SDS011;66042;51.090;-115.340;2023-07-02T03:03:39;8.90;;;5.70;;
74538;SDS011;66042;51.090;-115.340;2023-07-02T03:06:12;8.80;;;5.30;;
74538;SDS011;66042;51.090;-115.340;2023-07-02T03:08:41;9.10;;;5.80;;
74538;SDS011;66042;51.090;-115.340;2023-07-02T03:11:09;10.40;;;6.20;;
74538;SDS011;66042;51.090;-115.340;2023-07-02T03:13:36;9.60;;;6.50;;
74538;SDS011;66042;51.090;-115.340;2023-07-02T03:16:03;9.30;;;5.00;;
74538;SDS011;66042;51.090;-115.340;2023-07-02T03:18:30;9.30;;;5.70;;
74538;SDS011;66042;51.090;-115.340;2023-07-02T03:20:57;11.10;;;6.00;;
74538;SDS011;66042;51.090;-115.340;2023-07-02T03:23:24;8.90;;;6.20;;
74538;SDS011;66042;51.090;-115.340;2023-07-02T03:25:51;9.70;;;5.60;;
74538;SDS011;66042;51.090;-115.340;2023-07-02T03:28:18;12.00;;;6.50;;
74538;SDS011;66042;51.090;-115.340;2023-07-02T03:30:45;12.40;;;6.20;;
74538;SDS011;66042;51.090;-115.340;2023-07-02T03:33:12;11.50;;;6.40;;
74538;SDS011;66042;51.090;-115.340;2023-07-02T03:35:39;11.40;;;5.50;;
74538;SDS011;66042;51.090;-115.340;2023-07-02T03:38:06;10.00;;;5.80;;
74538;SDS011;66042;51.090;-115.340;2023-07-02T03:40:33;9.70;;;5.90;;
74538;SDS011;66042;51.090;-115.340;2023-07-02T03:43:00;8.80;;;5.10;;
74538;SDS011;66042;51.090;-115.340;2023-07-02T03:45:27;9.00;;;5.90;;
74538;SDS011;66042;51.090;-115.340;2023-07-02T03:47:54;10.10;;;5.80;;
74538;SDS011;66042;51.090;-115.340;2023-07-02T03:50:21;10.00;;;5.50;;
74538;SDS011;66042;51.090;-115.340;2023-07-02T03:52:49;8.40;;;5.00;;
74538;SDS011;66042;51.090;-115.340;2023-07-02T03:55:19;69.00;;;8.60;;
74538;SDS011;66042;51.090;-115.340;2023-07-02T03:57:46;27.60;;;6.40;;
74538;SDS011;66042;51.090;-115.340;2023-07-02T04:00:13;12.00;;;5.70;;
74538;SDS011;66042;51.090;-115.340;2023-07-02T04:02:40;9.60;;;5.40;;
74538;SDS011;66042;51.090;-115.340;2023-07-02T04:05:08;9.20;;;5.00;;
74538;SDS011;66042;51.090;-115.340;2023-07-02T04:07:35;10.20;;;5.50;;
74538;SDS011;66042;51.090;-115.340;2023-07-02T04:10:02;9.50;;;5.80;;
74538;SDS011;66042;51.090;-115.340;2023-07-02T04:12:30;8.70;;;5.60;;
74538;SDS011;66042;51.090;-115.340;2023-07-02T04:14:58;7.50;;;4.90;;
74538;SDS011;66042;51.090;-115.340;2023-07-02T04:17:24;11.50;;;5.00;;
74538;SDS011;66042;51.090;-115.340;2023-07-02T04:19:54;9.60;;;4.80;;
74538;SDS011;66042;51.090;-115.340;2023-07-02T04:22:21;8.00;;;5.00;;
74538;SDS011;66042;51.090;-115.340;2023-07-02T04:24:48;9.70;;;5.20;;
74538;SDS011;66042;51.090;-115.340;2023-07-02T04:27:16;11.50;;;5.00;;
74538;SDS011;66042;51.090;-115.340;2023-07-02T04:29:44;7.50;;;4.20;;
74538;SDS011;66042;51.090;-115.340;2023-07-02T04:32:12;9.10;;;5.40;;
74538;SDS011;66042;51.090;-115.340;2023-07-02T04:34:42;8.50;;;4.50;;
74538;SDS011;66042;51.090;-115.340;2023-07-02T04:37:09;9.80;;;4.40;;
74538;SDS011;66042;51.090;-115.340;2023-07-02T04:39:36;10.00;;;4.10;;
74538;SDS011;66042;51.090;-115.340;2023-07-02T04:42:03;7.00;;;4.50;;
74538;SDS011;66042;51.090;-115.340;2023-07-02T04:44:30;8.90;;;4.50;;
74538;SDS011;66042;51.090;-115.340;2023-07-02T04:47:02;8.50;;;4.30;;
74538;SDS011;66042;51.090;-115.340;2023-07-02T04:49:29;7.00;;;4.30;;
74538;SDS011;66042;51.090;-115.340;2023-07-02T04:51:56;7.50;;;4.50;;
74538;SDS011;66042;51.090;-115.340;2023-07-02T04:54:23;7.50;;;4.30;;
74538;SDS011;66042;51.090;-115.340;2023-07-02T04:56:50;8.10;;;4.30;;
74538;SDS011;66042;51.090;-115.340;2023-07-02T04:59:19;6.30;;;3.80;;
74538;SDS011;66042;51.090;-115.340;2023-07-02T05:01:47;7.90;;;4.10;;
74538;SDS011;66042;51.090;-115.340;2023-07-02T05:04:15;6.10;;;3.90;;
74538;SDS011;66042;51.090;-115.340;2023-07-02T05:06:42;6.60;;;4.10;;
74538;SDS011;66042;51.090;-115.340;2023-07-02T05:09:09;8.00;;;3.40;;
74538;SDS011;66042;51.090;-115.340;2023-07-02T05:11:36;6.40;;;3.60;;
74538;SDS011;66042;51.090;-115.340;2023-07-02T05:14:03;6.60;;;3.80;;
74538;SDS011;66042;51.090;-115.340;2023-07-02T05:16:31;6.40;;;3.30;;
74538;SDS011;66042;51.090;-115.340;2023-07-02T05:18:57;6.10;;;3.40;;
74538;SDS011;66042;51.090;-115.340;2023-07-02T05:21:26;5.30;;;3.20;;
74538;SDS011;66042;51.090;-115.340;2023-07-02T05:23:53;7.00;;;3.30;;
74538;SDS011;66042;51.090;-115.340;2023-07-02T05:26:19;6.50;;;3.20;;
74538;SDS011;66042;51.090;-115.340;2023-07-02T05:28:46;6.20;;;3.10;;
74538;SDS011;66042;51.090;-115.340;2023-07-02T05:31:13;5.10;;;3.00;;
74538;SDS011;66042;51.090;-115.340;2023-07-02T05:33:40;4.60;;;2.90;;
74538;SDS011;66042;51.090;-115.340;2023-07-02T05:36:07;5.00;;;3.10;;
74538;SDS011;66042;51.090;-115.340;2023-07-02T05:38:34;5.30;;;2.90;;
74538;SDS011;66042;51.090;-115.340;2023-07-02T05:41:02;6.30;;;3.50;;
74538;SDS011;66042;51.090;-115.340;2023-07-02T05:43:29;5.90;;;2.30;;
74538;SDS011;66042;51.090;-115.340;2023-07-02T05:45:59;5.70;;;2.90;;
74538;SDS011;66042;51.090;-115.340;2023-07-02T05:48:29;5.10;;;2.90;;
74538;SDS011;66042;51.090;-115.340;2023-07-02T05:50:56;4.60;;;2.60;;
74538;SDS011;66042;51.090;-115.340;2023-07-02T05:53:23;5.20;;;3.00;;
74538;SDS011;66042;51.090;-115.340;2023-07-02T05:55:50;5.00;;;2.60;;
74538;SDS011;66042;51.090;-115.340;2023-07-02T05:58:16;4.60;;;2.80;;
74538;SDS011;66042;51.090;-115.340;2023-07-02T06:00:43;4.80;;;2.60;;
74538;SDS011;66042;51.090;-115.340;2023-07-02T06:03:23;6.10;;;2.70;;
74538;SDS011;66042;51.090;-115.340;2023-07-02T06:05:55;6.00;;;2.80;;
74538;SDS011;66042;51.090;-115.340;2023-07-02T06:08:22;5.10;;;2.50;;
74538;SDS011;66042;51.090;-115.340;2023-07-02T06:10:49;4.60;;;2.70;;
74538;SDS011;66042;51.090;-115.340;2023-07-02T06:13:16;5.70;;;2.80;;
74538;SDS011;66042;51.090;-115.340;2023-07-02T06:15:43;5.50;;;2.80;;
74538;SDS011;66042;51.090;-115.340;2023-07-02T06:18:12;6.10;;;2.50;;
74538;SDS011;66042;51.090;-115.340;2023-07-02T06:20:39;4.70;;;2.30;;
74538;SDS011;66042;51.090;-115.340;2023-07-02T06:23:06;4.30;;;2.00;;
74538;SDS011;66042;51.090;-115.340;2023-07-02T06:25:33;4.60;;;2.50;;
74538;SDS011;66042;51.090;-115.340;2023-07-02T06:28:00;6.20;;;3.10;;
74538;SDS011;66042;51.090;-115.340;2023-07-02T06:30:27;9.50;;;3.10;;
74538;SDS011;66042;51.090;-115.340;2023-07-02T06:32:54;5.30;;;2.80;;
74538;SDS011;66042;51.090;-115.340;2023-07-02T06:35:21;5.20;;;2.60;;
74538;SDS011;66042;51.090;-115.340;2023-07-02T06:37:48;4.40;;;2.40;;
74538;SDS011;66042;51.090;-115.340;2023-07-02T06:40:15;3.70;;;2.10;;
74538;SDS011;66042;51.090;-115.340;2023-07-02T06:42:42;4.60;;;2.30;;
74538;SDS011;66042;51.090;-115.340;2023-07-02T06:45:09;4.10;;;1.90;;
74538;SDS011;66042;51.090;-115.340;2023-07-02T06:47:36;3.90;;;1.90;;
74538;SDS011;66042;51.090;-115.340;2023-07-02T06:50:03;4.60;;;2.80;;
74538;SDS011;66042;51.090;-115.340;2023-07-02T06:52:31;4.50;;;2.30;;
74538;SDS011;66042;51.090;-115.340;2023-07-02T06:54:58;7.30;;;2.50;;
74538;SDS011;66042;51.090;-115.340;2023-07-02T06:57:25;5.20;;;2.30;;
74538;SDS011;66042;51.090;-115.340;2023-07-02T06:59:56;5.70;;;2.90;;
74538;SDS011;66042;51.090;-115.340;2023-07-02T07:02:25;4.70;;;2.30;;
74538;SDS011;66042;51.090;-115.340;2023-07-02T07:04:55;4.60;;;2.30;;
74538;SDS011;66042;51.090;-115.340;2023-07-02T07:07:22;3.60;;;2.20;;
74538;SDS011;66042;51.090;-115.340;2023-07-02T07:09:49;3.60;;;2.10;;
74538;SDS011;66042;51.090;-115.340;2023-07-02T07:12:16;6.80;;;2.10;;
74538;SDS011;66042;51.090;-115.340;2023-07-02T07:14:43;3.90;;;2.40;;
74538;SDS011;66042;51.090;-115.340;2023-07-02T07:17:10;4.30;;;1.80;;
74538;SDS011;66042;51.090;-115.340;2023-07-02T07:19:37;3.60;;;1.90;;
74538;SDS011;66042;51.090;-115.340;2023-07-02T07:22:04;6.60;;;2.10;;
74538;SDS011;66042;51.090;-115.340;2023-07-02T07:24:31;4.10;;;2.60;;
74538;SDS011;66042;51.090;-115.340;2023-07-02T07:26:58;2.90;;;1.90;;
74538;SDS011;66042;51.090;-115.340;2023-07-02T07:29:26;3.10;;;2.00;;
74538;SDS011;66042;51.090;-115.340;2023-07-02T07:31:53;2.60;;;1.40;;
74538;SDS011;66042;51.090;-115.340;2023-07-02T07:34:20;3.60;;;2.00;;
74538;SDS011;66042;51.090;-115.340;2023-07-02T07:36:47;3.60;;;1.70;;
74538;SDS011;66042;51.090;-115.340;2023-07-02T07:39:14;3.30;;;1.70;;
74538;SDS011;66042;51.090;-115.340;2023-07-02T07:41:45;3.20;;;1.60;;
74538;SDS011;66042;51.090;-115.340;2023-07-02T07:44:16;3.00;;;1.60;;
74538;SDS011;66042;51.090;-115.340;2023-07-02T07:46:43;3.30;;;1.50;;
74538;SDS011;66042;51.090;-115.340;2023-07-02T07:49:11;4.70;;;1.80;;
74538;SDS011;66042;51.090;-115.340;2023-07-02T07:51:39;4.20;;;1.60;;
74538;SDS011;66042;51.090;-115.340;2023-07-02T07:54:06;3.30;;;1.40;;
74538;SDS011;66042;51.090;-115.340;2023-07-02T07:56:33;3.90;;;1.30;;
74538;SDS011;66042;51.090;-115.340;2023-07-02T07:59:00;3.80;;;1.50;;
74538;SDS011;66042;51.090;-115.340;2023-07-02T08:01:27;3.20;;;1.30;;
74538;SDS011;66042;51.090;-115.340;2023-07-02T08:03:55;2.40;;;1.40;;
74538;SDS011;66042;51.090;-115.340;2023-07-02T08:06:22;6.10;;;1.50;;
74538;SDS011;66042;51.090;-115.340;2023-07-02T08:08:49;2.60;;;1.50;;
74538;SDS011;66042;51.090;-115.340;2023-07-02T08:11:17;3.20;;;1.10;;
74538;SDS011;66042;51.090;-115.340;2023-07-02T08:13:44;2.20;;;1.10;;
74538;SDS011;66042;51.090;-115.340;2023-07-02T08:16:11;3.20;;;1.30;;
74538;SDS011;66042;51.090;-115.340;2023-07-02T08:18:39;5.00;;;1.10;;
74538;SDS011;66042;51.090;-115.340;2023-07-02T08:21:06;1.90;;;0.80;;
74538;SDS011;66042;51.090;-115.340;2023-07-02T08:23:33;2.20;;;1.10;;
74538;SDS011;66042;51.090;-115.340;2023-07-02T08:26:00;2.40;;;0.90;;
74538;SDS011;66042;51.090;-115.340;2023-07-02T08:28:29;2.20;;;1.30;;
74538;SDS011;66042;51.090;-115.340;2023-07-02T08:30:56;2.60;;;1.10;;
74538;SDS011;66042;51.090;-115.340;2023-07-02T08:33:23;1.90;;;1.00;;
74538;SDS011;66042;51.090;-115.340;2023-07-02T08:35:50;2.10;;;1.00;;
74538;SDS011;66042;51.090;-115.340;2023-07-02T08:38:17;2.20;;;0.90;;
74538;SDS011;66042;51.090;-115.340;2023-07-02T08:40:44;2.10;;;1.20;;
74538;SDS011;66042;51.090;-115.340;2023-07-02T08:43:11;2.90;;;1.20;;
74538;SDS011;66042;51.090;-115.340;2023-07-02T08:45:41;2.20;;;0.80;;
74538;SDS011;66042;51.090;-115.340;2023-07-02T08:48:10;1.80;;;1.00;;
74538;SDS011;66042;51.090;-115.340;2023-07-02T08:50:38;2.20;;;1.20;;
74538;SDS011;66042;51.090;-115.340;2023-07-02T08:53:05;2.50;;;1.30;;
74538;SDS011;66042;51.090;-115.340;2023-07-02T08:55:32;2.80;;;1.30;;
74538;SDS011;66042;51.090;-115.340;2023-07-02T08:57:59;2.20;;;1.10;;
74538;SDS011;66042;51.090;-115.340;2023-07-02T09:00:27;2.60;;;1.20;;
74538;SDS011;66042;51.090;-115.340;2023-07-02T09:02:57;2.10;;;0.80;;
74538;SDS011;66042;51.090;-115.340;2023-07-02T09:05:24;1.80;;;1.00;;
74538;SDS011;66042;51.090;-115.340;2023-07-02T09:07:51;1.50;;;0.70;;
74538;SDS011;66042;51.090;-115.340;2023-07-02T09:10:31;2.20;;;0.80;;
74538;SDS011;66042;51.090;-115.340;2023-07-02T09:13:05;1.60;;;0.70;;
74538;SDS011;66042;51.090;-115.340;2023-07-02T09:15:38;1.90;;;0.90;;
74538;SDS011;66042;51.090;-115.340;2023-07-02T09:18:15;3.90;;;0.80;;
74538;SDS011;66042;51.090;-115.340;2023-07-02T09:20:43;3.00;;;0.90;;
74538;SDS011;66042;51.090;-115.340;2023-07-02T09:23:10;1.90;;;0.90;;
74538;SDS011;66042;51.090;-115.340;2023-07-02T09:25:39;3.20;;;0.70;;
74538;SDS011;66042;51.090;-115.340;2023-07-02T09:28:18;2.10;;;0.80;;
74538;SDS011;66042;51.090;-115.340;2023-07-02T09:30:56;3.00;;;1.10;;
74538;SDS011;66042;51.090;-115.340;2023-07-02T09:33:25;1.80;;;1.10;;
74538;SDS011;66042;51.090;-115.340;2023-07-02T09:35:53;3.10;;;1.00;;
74538;SDS011;66042;51.090;-115.340;2023-07-02T09:38:21;2.40;;;1.00;;
74538;SDS011;66042;51.090;-115.340;2023-07-02T09:40:51;2.00;;;0.70;;
74538;SDS011;66042;51.090;-115.340;2023-07-02T09:43:19;1.70;;;0.80;;
74538;SDS011;66042;51.090;-115.340;2023-07-02T09:45:48;1.70;;;0.70;;
74538;SDS011;66042;51.090;-115.340;2023-07-02T09:48:17;2.40;;;0.90;;
74538;SDS011;66042;51.090;-115.340;2023-07-02T09:50:49;2.10;;;0.60;;
74538;SDS011;66042;51.090;-115.340;2023-07-02T09:53:17;2.30;;;1.00;;
74538;SDS011;66042;51.090;-115.340;2023-07-02T09:55:44;3.10;;;0.80;;
74538;SDS011;66042;51.090;-115.340;2023-07-02T09:58:11;1.60;;;0.80;;
74538;SDS011;66042;51.090;-115.340;2023-07-02T10:00:39;2.90;;;0.70;;
74538;SDS011;66042;51.090;-115.340;2023-07-02T10:03:06;1.60;;;0.80;;
74538;SDS011;66042;51.090;-115.340;2023-07-02T10:05:33;1.40;;;0.80;;
74538;SDS011;66042;51.090;-115.340;2023-07-02T10:08:15;1.90;;;0.80;;
74538;SDS011;66042;51.090;-115.340;2023-07-02T10:10:47;1.50;;;0.70;;
74538;SDS011;66042;51.090;-115.340;2023-07-02T10:13:14;1.30;;;0.60;;
74538;SDS011;66042;51.090;-115.340;2023-07-02T10:15:41;1.60;;;0.80;;
74538;SDS011;66042;51.090;-115.340;2023-07-02T10:18:08;1.80;;;0.90;;
74538;SDS011;66042;51.090;-115.340;2023-07-02T10:20:37;5.70;;;1.00;;
74538;SDS011;66042;51.090;-115.340;2023-07-02T10:23:08;4.20;;;1.00;;
74538;SDS011;66042;51.090;-115.340;2023-07-02T10:25:37;2.10;;;0.80;;
74538;SDS011;66042;51.090;-115.340;2023-07-02T10:28:17;1.90;;;0.90;;
74538;SDS011;66042;51.090;-115.340;2023-07-02T10:30:48;1.40;;;0.60;;
74538;SDS011;66042;51.090;-115.340;2023-07-02T10:33:18;2.20;;;0.80;;
74538;SDS011;66042;51.090;-115.340;2023-07-02T10:35:49;1.50;;;0.70;;
74538;SDS011;66042;51.090;-115.340;2023-07-02T10:38:24;1.70;;;0.70;;
74538;SDS011;66042;51.090;-115.340;2023-07-02T10:40:59;1.30;;;0.50;;
74538;SDS011;66042;51.090;-115.340;2023-07-02T10:43:30;2.40;;;0.70;;
74538;SDS011;66042;51.090;-115.340;2023-07-02T10:46:01;2.10;;;0.90;;
74538;SDS011;66042;51.090;-115.340;2023-07-02T10:48:31;1.80;;;0.90;;
74538;SDS011;66042;51.090;-115.340;2023-07-02T10:50:58;2.40;;;1.10;;
74538;SDS011;66042;51.090;-115.340;2023-07-02T10:53:25;2.00;;;0.80;;
74538;SDS011;66042;51.090;-115.340;2023-07-02T10:55:56;1.90;;;0.80;;
74538;SDS011;66042;51.090;-115.340;2023-07-02T10:58:25;2.90;;;1.20;;
74538;SDS011;66042;51.090;-115.340;2023-07-02T11:00:52;1.90;;;1.00;;
74538;SDS011;66042;51.090;-115.340;2023-07-02T11:03:21;1.80;;;0.80;;
74538;SDS011;66042;51.090;-115.340;2023-07-02T11:05:52;2.40;;;0.80;;
74538;SDS011;66042;51.090;-115.340;2023-07-02T11:08:20;1.90;;;0.90;;
74538;SDS011;66042;51.090;-115.340;2023-07-02T11:10:49;4.10;;;1.10;;
74538;SDS011;66042;51.090;-115.340;2023-07-02T11:13:18;1.90;;;1.00;;
74538;SDS011;66042;51.090;-115.340;2023-07-02T11:15:46;2.10;;;0.80;;
74538;SDS011;66042;51.090;-115.340;2023-07-02T11:18:16;2.10;;;1.20;;
74538;SDS011;66042;51.090;-115.340;2023-07-02T11:20:48;2.20;;;1.00;;
74538;SDS011;66042;51.090;-115.340;2023-07-02T11:23:23;5.50;;;1.30;;
74538;SDS011;66042;51.090;-115.340;2023-07-02T11:26:03;4.10;;;1.40;;
74538;SDS011;66042;51.090;-115.340;2023-07-02T11:28:31;2.30;;;1.30;;
74538;SDS011;66042;51.090;-115.340;2023-07-02T11:31:00;2.60;;;1.00;;
74538;SDS011;66042;51.090;-115.340;2023-07-02T11:33:37;2.20;;;1.30;;
74538;SDS011;66042;51.090;-115.340;2023-07-02T11:36:07;2.30;;;1.20;;
74538;SDS011;66042;51.090;-115.340;2023-07-02T11:38:49;2.90;;;1.20;;
74538;SDS011;66042;51.090;-115.340;2023-07-02T11:41:20;2.00;;;0.90;;
74538;SDS011;66042;51.090;-115.340;2023-07-02T11:43:47;2.30;;;1.10;;
74538;SDS011;66042;51.090;-115.340;2023-07-02T11:46:14;2.20;;;0.90;;
74538;SDS011;66042;51.090;-115.340;2023-07-02T11:48:42;2.10;;;1.10;;
74538;SDS011;66042;51.090;-115.340;2023-07-02T11:51:08;2.50;;;1.10;;
74538;SDS011;66042;51.090;-115.340;2023-07-02T11:53:35;2.00;;;1.00;;
74538;SDS011;66042;51.090;-115.340;2023-07-02T11:56:02;2.40;;;0.90;;
74538;SDS011;66042;51.090;-115.340;2023-07-02T11:58:29;2.30;;;1.10;;
74538;SDS011;66042;51.090;-115.340;2023-07-02T12:00:56;4.70;;;1.30;;
74538;SDS011;66042;51.090;-115.340;2023-07-02T12:03:23;3.20;;;1.20;;
74538;SDS011;66042;51.090;-115.340;2023-07-02T12:05:50;3.40;;;1.20;;
74538;SDS011;66042;51.090;-115.340;2023-07-02T12:08:18;3.90;;;1.40;;
74538;SDS011;66042;51.090;-115.340;2023-07-02T12:10:45;2.50;;;1.00;;
74538;SDS011;66042;51.090;-115.340;2023-07-02T12:13:12;2.60;;;1.30;;
74538;SDS011;66042;51.090;-115.340;2023-07-02T12:15:38;4.10;;;1.10;;
74538;SDS011;66042;51.090;-115.340;2023-07-02T12:18:05;1.80;;;0.80;;
74538;SDS011;66042;51.090;-115.340;2023-07-02T12:20:32;2.90;;;0.90;;
74538;SDS011;66042;51.090;-115.340;2023-07-02T12:22:59;1.40;;;0.70;;
74538;SDS011;66042;51.090;-115.340;2023-07-02T12:25:26;1.80;;;0.90;;
74538;SDS011;66042;51.090;-115.340;2023-07-02T12:27:53;2.30;;;0.80;;
74538;SDS011;66042;51.090;-115.340;2023-07-02T12:30:20;2.10;;;0.60;;
74538;SDS011;66042;51.090;-115.340;2023-07-02T12:32:47;2.20;;;0.70;;
74538;SDS011;66042;51.090;-115.340;2023-07-02T12:35:13;1.20;;;0.50;;
74538;SDS011;66042;51.090;-115.340;2023-07-02T12:37:44;1.90;;;0.70;;
74538;SDS011;66042;51.090;-115.340;2023-07-02T12:40:15;1.60;;;0.60;;
74538;SDS011;66042;51.090;-115.340;2023-07-02T12:42:44;3.40;;;0.70;;
74538;SDS011;66042;51.090;-115.340;2023-07-02T12:45:13;2.50;;;0.60;;
74538;SDS011;66042;51.090;-115.340;2023-07-02T12:47:41;2.50;;;0.70;;
74538;SDS011;66042;51.090;-115.340;2023-07-02T12:50:10;1.80;;;0.70;;
74538;SDS011;66042;51.090;-115.340;2023-07-02T12:52:37;2.70;;;0.70;;
74538;SDS011;66042;51.090;-115.340;2023-07-02T12:55:05;1.30;;;0.70;;
74538;SDS011;66042;51.090;-115.340;2023-07-02T12:57:32;1.80;;;0.50;;
74538;SDS011;66042;51.090;-115.340;2023-07-02T12:59:59;1.50;;;0.60;;
74538;SDS011;66042;51.090;-115.340;2023-07-02T13:02:26;2.00;;;0.50;;
74538;SDS011;66042;51.090;-115.340;2023-07-02T13:04:53;2.40;;;0.50;;
74538;SDS011;66042;51.090;-115.340;2023-07-02T13:07:20;2.00;;;0.50;;
74538;SDS011;66042;51.090;-115.340;2023-07-02T13:09:49;2.70;;;0.50;;
74538;SDS011;66042;51.090;-115.340;2023-07-02T13:12:16;2.40;;;0.30;;
74538;SDS011;66042;51.090;-115.340;2023-07-02T13:14:43;1.60;;;0.50;;
74538;SDS011;66042;51.090;-115.340;2023-07-02T13:17:10;2.80;;;0.60;;
74538;SDS011;66042;51.090;-115.340;2023-07-02T13:19:38;2.00;;;0.40;;
74538;SDS011;66042;51.090;-115.340;2023-07-02T13:22:05;1.40;;;0.60;;
74538;SDS011;66042;51.090;-115.340;2023-07-02T13:24:34;1.60;;;0.40;;
74538;SDS011;66042;51.090;-115.340;2023-07-02T13:27:11;1.90;;;0.50;;
74538;SDS011;66042;51.090;-115.340;2023-07-02T13:29:41;2.50;;;0.50;;
74538;SDS011;66042;51.090;-115.340;2023-07-02T13:32:08;2.40;;;0.50;;
74538;SDS011;66042;51.090;-115.340;2023-07-02T13:34:35;1.00;;;0.30;;
74538;SDS011;66042;51.090;-115.340;2023-07-02T13:37:02;1.50;;;0.60;;
74538;SDS011;66042;51.090;-115.340;2023-07-02T13:39:30;2.00;;;0.40;;
74538;SDS011;66042;51.090;-115.340;2023-07-02T13:41:57;1.30;;;0.40;;
74538;SDS011;66042;51.090;-115.340;2023-07-02T13:44:23;4.70;;;0.50;;
74538;SDS011;66042;51.090;-115.340;2023-07-02T13:46:50;2.00;;;0.50;;
74538;SDS011;66042;51.090;-115.340;2023-07-02T13:49:16;1.40;;;0.40;;
74538;SDS011;66042;51.090;-115.340;2023-07-02T13:51:43;2.40;;;0.50;;
74538;SDS011;66042;51.090;-115.340;2023-07-02T13:54:12;1.10;;;0.50;;
74538;SDS011;66042;51.090;-115.340;2023-07-02T13:56:40;1.10;;;0.50;;
74538;SDS011;66042;51.090;-115.340;2023-07-02T13:59:07;1.50;;;0.40;;
74538;SDS011;66042;51.090;-115.340;2023-07-02T14:01:35;1.50;;;0.60;;
74538;SDS011;66042;51.090;-115.340;2023-07-02T14:04:03;1.50;;;0.60;;
74538;SDS011;66042;51.090;-115.340;2023-07-02T14:06:30;3.20;;;0.50;;
74538;SDS011;66042;51.090;-115.340;2023-07-02T14:08:57;1.10;;;0.40;;
74538;SDS011;66042;51.090;-115.340;2023-07-02T14:11:24;1.70;;;0.50;;
74538;SDS011;66042;51.090;-115.340;2023-07-02T14:13:54;1.80;;;0.50;;
74538;SDS011;66042;51.090;-115.340;2023-07-02T14:16:22;2.30;;;0.50;;